Rachel — D5CG4 — position and weather

sailwx.info

Track history (hours):
 
Tides and Currents Weather Stations Pressure Air Temp Water Temp Dewpoint Dewpoint Depression Visibility Wind Speed Wind Dir Waves Ship Positions

Rachel

Last reported at 2014-Sep-24 07:16 UTC. Time now 2014-Sep-30 21:54 UTC.
Position N 09°24' E 122°21'.

Length 189 m; draft 6.5 m.

Type: Cargo ship. MMSI: 636015692.

Date/timePositionNaut miles runAvg speedWind from/ knotsBaromVisibWave heightAir tempDewpointWater temp
2014-Sep-24 07:16N 09°24' E 122°21'811.1
2014-Sep-24 06:34N 09°18' E 122°26'1110.9
2014-Sep-24 05:32N 09°11' E 122°35'2311.6
2014-Sep-24 03:33N 09°00' E 122°55'1410.5
2014-Sep-24 02:13N 08°57' E 123°09'811.8
2014-Sep-24 01:34N 09°01' E 123°16'1111.1
2014-Sep-24 00:33N 09°10' E 123°23'1211.8
2014-Sep-23 23:33N 09°21' E 123°28'1211.8
2014-Sep-23 22:34N 09°31' E 123°33'  
Track history (hours):
 
Tides and Currents Weather Stations Pressure Air Temp Water Temp Dewpoint Dewpoint Depression Visibility Wind Speed Wind Dir Waves Ship Positions

Rachel

Last reported at 2014-Sep-24 07:16 UTC. Time now 2014-Sep-30 21:54 UTC.
Position N 09°24' E 122°21'.

Length 189 m; draft 6.5 m.

Type: Cargo ship. MMSI: 636015692.

Date/timePositionNaut miles runAvg speedWind from/ knotsBaromVisibWave heightAir tempDewpointWater temp
2014-Sep-24 07:16N 09°24' E 122°21'811.1
2014-Sep-24 06:34N 09°18' E 122°26'1110.9
2014-Sep-24 05:32N 09°11' E 122°35'2311.6
2014-Sep-24 03:33N 09°00' E 122°55'1410.5
2014-Sep-24 02:13N 08°57' E 123°09'811.8
2014-Sep-24 01:34N 09°01' E 123°16'1111.1
2014-Sep-24 00:33N 09°10' E 123°23'1211.8
2014-Sep-23 23:33N 09°21' E 123°28'1211.8
2014-Sep-23 22:34N 09°31' E 123°33'  

Dump ship's entire track history